Time;durP1;ratioP1;P1;durP2;ratioP2;P2;SDS_P1;SDS_P2;PMS_P1;PMS_P2;Temp;Humidity;BMP_temperature;BMP_pressure;BME280_temperature;BME280_humidity;BME280_pressure;Samples;Min_cycle;Max_cycle;Signal;HPM_P1;HPM_P2
2021/08/22 00:02:05;;;;;;;29.90;20.50;;;;;;;12.60;74.95;99847.73;470613;1195;141353;-61
2021/08/22 00:12:12;;;;;;;27.20;19.10;;;;;;;12.70;74.78;99840.68;465228;1195;140654;-61
2021/08/22 00:22:18;;;;;;;26.70;18.10;;;;;;;12.71;74.64;99836.98;456370;1195;141690;-61
2021/08/22 00:32:23;;;;;;;18.40;13.70;;;;;;;12.68;74.80;99837.50;471096;1195;141709;-62
2021/08/22 00:42:34;;;;;;;17.90;14.10;;;;;;;12.70;75.03;99830.02;465247;1195;142076;-60
2021/08/22 00:52:40;;;;;;;12.10;10.40;;;;;;;12.71;74.88;99828.89;467322;1195;141997;-60
2021/08/22 01:02:50;;;;;;;14.00;12.40;;;;;;;12.68;74.78;99824.74;458698;1195;142286;-62
2021/08/22 01:13:04;;;;;;;17.10;14.60;;;;;;;12.59;74.75;99817.62;472279;1195;141238;-62
2021/08/22 01:23:12;;;;;;;13.70;12.10;;;;;;;12.55;74.94;99814.33;471376;1195;141291;-62
2021/08/22 01:33:18;;;;;;;;;;;;;;;12.61;75.00;99812.19;472599;1195;142683;-62
2021/08/22 01:43:26;;;;;;;11.40;10.20;;;;;;;12.71;74.85;99809.88;472782;1194;128053;-62
2021/08/22 01:53:34;;;;;;;12.10;10.00;;;;;;;12.76;74.85;99812.05;471649;1195;141321;-62
2021/08/22 02:03:46;;;;;;;10.80;9.50;;;;;;;12.79;74.69;99810.42;472106;1195;141685;-64
2021/08/22 02:13:55;;;;;;;11.00;9.90;;;;;;;12.78;74.63;99803.48;462014;1195;145489;-61
2021/08/22 02:24:02;;;;;;;10.90;9.90;;;;;;;12.67;74.88;99788.23;463234;1195;141084;-61
2021/08/22 02:34:08;;;;;;;10.30;9.30;;;;;;;12.49;75.10;99784.52;472159;1195;141653;-61
2021/08/22 02:44:14;;;;;;;11.70;10.50;;;;;;;12.33;75.41;99780.55;469940;1184;140992;-61
2021/08/22 02:54:20;;;;;;;11.70;10.40;;;;;;;12.25;75.72;99776.33;472355;1195;142408;-60
2021/08/22 03:04:26;;;;;;;12.60;11.30;;;;;;;12.29;76.24;99761.36;470360;1194;140946;-61
2021/08/22 03:14:32;;;;;;;11.80;10.40;;;;;;;12.53;76.35;99757.92;471512;1195;142235;-61
2021/08/22 03:24:38;;;;;;;12.30;10.70;;;;;;;12.79;76.26;99762.63;472258;1195;141045;-61
2021/08/22 03:34:43;;;;;;;13.00;11.10;;;;;;;13.03;75.93;99767.47;467256;1195;145301;-62
2021/08/22 03:44:50;;;;;;;12.00;10.60;;;;;;;13.24;75.69;99767.56;472290;1195;141074;-62
2021/08/22 03:54:56;;;;;;;11.80;10.20;;;;;;;13.39;75.41;99762.45;469100;1194;145614;-61
2021/08/22 04:05:04;;;;;;;12.40;9.80;;;;;;;13.54;75.22;99764.20;471599;1194;142037;-60
2021/08/22 04:15:11;;;;;;;9.30;8.40;;;;;;;13.69;74.99;99764.46;472673;1185;141359;-61
2021/08/22 04:25:18;;;;;;;9.90;8.40;;;;;;;13.85;74.67;99769.28;472352;1192;142618;-61
2021/08/22 04:35:24;;;;;;;9.70;8.20;;;;;;;14.04;74.20;99771.02;467652;1195;142746;-60
2021/08/22 04:45:29;;;;;;;8.70;7.90;;;;;;;14.23;73.99;99774.71;468677;1195;141087;-61
2021/08/22 04:55:36;;;;;;;8.80;7.90;;;;;;;14.39;73.94;99774.91;471515;1195;194939;-60
2021/08/22 05:05:42;;;;;;;8.40;7.40;;;;;;;14.54;74.16;99774.49;472227;1192;196116;-61
2021/08/22 05:15:50;;;;;;;9.70;8.30;;;;;;;14.65;73.93;99769.39;472335;1190;141093;-61
2021/08/22 05:25:56;;;;;;;9.30;8.40;;;;;;;14.83;73.59;99774.04;471561;1194;142328;-61
2021/08/22 05:36:15;;;;;;;8.80;8.00;;;;;;;15.04;73.27;99774.34;472228;1195;141219;-61
2021/08/22 05:46:21;;;;;;;9.40;8.50;;;;;;;15.31;72.98;99777.48;469949;1195;141316;-60
2021/08/22 05:56:27;;;;;;;8.90;8.00;;;;;;;15.39;72.43;99770.48;471048;1195;141462;-61
2021/08/22 06:06:33;;;;;;;9.00;8.00;;;;;;;15.49;72.41;99768.43;464102;1195;140312;-60
2021/08/22 06:16:39;;;;;;;9.20;8.10;;;;;;;15.65;72.03;99768.85;471536;1194;151280;-60
2021/08/22 06:26:44;;;;;;;10.00;8.40;;;;;;;15.63;71.67;99766.91;471957;1195;141804;-61
2021/08/22 06:36:50;;;;;;;9.80;7.10;;;;;;;15.65;71.57;99762.38;471927;1195;142046;-61
2021/08/22 06:46:56;;;;;;;8.40;7.60;;;;;;;16.03;71.59;99752.17;462880;1194;141473;-60
2021/08/22 06:57:02;;;;;;;7.70;7.00;;;;;;;18.13;70.11;99750.67;472144;1184;144405;-66
2021/08/22 07:07:08;;;;;;;13.60;8.10;;;;;;;19.21;66.60;99755.52;472122;1195;140632;-65
2021/08/22 07:17:19;;;;;;;7.30;6.70;;;;;;;18.86;66.07;99763.25;471326;1195;142527;-67
2021/08/22 07:27:25;;;;;;;6.50;5.90;;;;;;;18.96;65.68;99758.38;472070;1195;140781;-66
2021/08/22 07:37:31;;;;;;;7.50;5.80;;;;;;;19.02;65.06;99763.91;471742;1196;141595;-67
2021/08/22 07:47:36;;;;;;;6.50;5.80;;;;;;;18.98;64.73;99765.36;472178;1195;141571;-64
2021/08/22 07:57:42;;;;;;;5.70;5.10;;;;;;;19.28;64.22;99766.35;472307;1192;154734;-63
2021/08/22 08:07:48;;;;;;;4.70;4.30;;;;;;;22.33;62.89;99764.94;471612;1194;147178;-63
2021/08/22 08:17:54;;;;;;;4.90;4.40;;;;;;;27.35;54.83;99758.55;472625;1194;140310;-63
2021/08/22 08:27:59;;;;;;;5.20;4.70;;;;;;;31.44;49.86;99753.84;471956;1195;141047;-64
2021/08/22 08:38:05;;;;;;;5.60;4.90;;;;;;;31.43;45.20;99752.45;471129;1196;141143;-64
2021/08/22 08:48:13;;;;;;;6.80;5.60;;;;;;;29.93;44.66;99745.48;472060;1195;142521;-65
2021/08/22 08:58:19;;;;;;;5.80;5.20;;;;;;;29.56;44.46;99742.39;471963;1195;140756;-65
2021/08/22 09:09:12;;;;;;;6.00;5.50;;;;;;;29.40;44.31;99745.37;471747;1194;141414;-65
2021/08/22 09:19:42;;;;;;;7.20;6.60;;;;;;;29.46;43.76;99736.23;471889;1195;140584;-65
2021/08/22 09:30:21;;;;;;;6.40;5.90;;;;;;;29.16;43.83;99732.88;471834;1195;140948;-65
2021/08/22 09:40:51;;;;;;;5.70;5.20;;;;;;;29.13;43.44;99723.77;470360;1195;140771;-66
2021/08/22 09:51:42;;;;;;;6.10;5.50;;;;;;;28.91;43.37;99723.02;472099;1195;141182;-64
2021/08/22 10:02:18;;;;;;;6.70;5.80;;;;;;;28.75;43.10;99722.32;471522;1195;140626;-65
2021/08/22 10:12:23;;;;;;;;;;;;;;;28.59;43.27;99716.80;471976;1195;140460;-64
2021/08/22 10:22:38;;;;;;;8.00;7.00;;;;;;;28.03;43.77;99706.61;472572;1195;127530;-65
2021/08/22 10:33:13;;;;;;;6.80;6.10;;;;;;;27.10;44.64;99705.79;471824;1195;142890;-65
2021/08/22 10:43:41;;;;;;;6.50;5.90;;;;;;;26.57;45.63;99698.70;471934;1195;143827;-66
2021/08/22 10:53:50;;;;;;;7.90;5.90;;;;;;;26.40;46.11;99694.70;472397;1194;140460;-65
2021/08/22 11:04:04;;;;;;;6.80;6.20;;;;;;;26.57;46.14;99695.96;472759;1194;140478;-65
2021/08/22 11:14:14;;;;;;;6.90;6.30;;;;;;;26.89;45.92;99689.27;471847;1194;140950;-65
2021/08/22 11:24:20;;;;;;;6.30;5.70;;;;;;;26.95;45.20;99679.58;471866;1195;141961;-65
2021/08/22 11:34:28;;;;;;;8.00;5.80;;;;;;;27.23;44.97;99665.48;472308;1195;140239;-66
2021/08/22 11:44:33;;;;;;;6.60;6.10;;;;;;;27.24;44.65;99659.14;471035;1195;140609;-65
2021/08/22 11:54:39;;;;;;;7.00;5.50;;;;;;;26.97;44.36;99656.16;471943;1195;141254;-65
2021/08/22 12:04:45;;;;;;;7.00;5.90;;;;;;;27.06;44.46;99649.52;471397;1194;142096;-65
2021/08/22 12:14:51;;;;;;;6.90;6.00;;;;;;;27.34;44.13;99647.28;469092;1195;141408;-64
2021/08/22 12:24:57;;;;;;;6.90;6.30;;;;;;;27.45;44.03;99642.93;467453;1194;143626;-64
2021/08/22 12:35:06;;;;;;;6.00;5.50;;;;;;;27.40;43.96;99628.00;470601;1195;141414;-64
2021/08/22 12:45:14;;;;;;;5.80;5.30;;;;;;;27.27;44.01;99623.11;472197;1195;141358;-64
2021/08/22 12:55:19;;;;;;;6.20;5.70;;;;;;;27.09;43.62;99626.25;471878;1197;141303;-65
2021/08/22 13:05:25;;;;;;;6.80;6.20;;;;;;;26.86;43.87;99619.16;467518;1192;142157;-64
2021/08/22 13:15:31;;;;;;;6.60;6.00;;;;;;;26.91;43.90;99610.81;459490;1195;140354;-64
2021/08/22 13:25:37;;;;;;;6.00;5.50;;;;;;;26.82;44.05;99608.05;468743;1195;161440;-64
2021/08/22 13:35:43;;;;;;;5.70;5.20;;;;;;;26.58;44.54;99607.33;471901;1196;140281;-64
2021/08/22 13:45:49;;;;;;;5.70;5.10;;;;;;;26.41;44.64;99597.84;472376;1192;142621;-64
2021/08/22 13:55:55;;;;;;;5.60;5.20;;;;;;;26.54;44.67;99581.84;468721;1195;144735;-65
2021/08/22 14:06:02;;;;;;;7.30;4.90;;;;;;;26.67;44.50;99570.86;464073;1195;140978;-64
2021/08/22 14:16:08;;;;;;;7.90;5.30;;;;;;;26.27;44.69;99564.63;464021;1195;140032;-68
2021/08/22 14:26:14;;;;;;;4.60;4.20;;;;;;;25.91;45.25;99554.51;471319;1195;141525;-64
2021/08/22 14:36:20;;;;;;;5.50;5.10;;;;;;;25.69;45.73;99554.89;469476;1195;141344;-63
2021/08/22 14:46:26;;;;;;;5.00;4.60;;;;;;;25.34;45.99;99550.06;468386;1195;141335;-63
2021/08/22 14:56:32;;;;;;;5.50;5.10;;;;;;;24.87;46.53;99540.02;467874;1195;142079;-63
2021/08/22 15:06:38;;;;;;;5.50;4.80;;;;;;;24.53;47.30;99532.44;472645;1195;142973;-64
2021/08/22 15:16:47;;;;;;;6.10;5.40;;;;;;;24.28;48.19;99521.66;471617;1183;141565;-64
2021/08/22 15:26:53;;;;;;;4.60;4.30;;;;;;;24.12;49.53;99515.38;470365;1195;141414;-65
2021/08/22 15:36:59;;;;;;;5.10;4.60;;;;;;;24.11;49.66;99515.60;469746;1195;141981;-64
2021/08/22 15:47:05;;;;;;;4.80;4.40;;;;;;;24.01;49.92;99515.64;471589;1183;141035;-62
2021/08/22 15:57:12;;;;;;;5.10;4.70;;;;;;;23.89;50.73;99512.30;471221;1195;140581;-64
2021/08/22 16:07:17;;;;;;;5.60;5.10;;;;;;;23.64;51.18;99509.98;469816;1195;139997;-64
2021/08/22 16:17:23;;;;;;;5.60;5.10;;;;;;;23.16;51.97;99503.43;471108;1195;141349;-66
2021/08/22 16:27:29;;;;;;;177.10;24.10;;;;;;;22.76;52.91;99504.16;471943;1195;140376;-63
2021/08/22 16:37:35;;;;;;;5.90;5.40;;;;;;;22.47;53.65;99511.27;471665;1195;142086;-63
2021/08/22 16:47:40;;;;;;;5.70;5.20;;;;;;;22.24;54.43;99502.84;471871;1192;196634;-63
2021/08/22 16:57:47;;;;;;;5.40;4.90;;;;;;;22.06;55.11;99505.56;472402;1195;141000;-66
2021/08/22 17:07:53;;;;;;;6.00;5.50;;;;;;;21.86;55.74;99505.45;455497;1195;10002833;-68
2021/08/22 17:18:00;;;;;;;7.00;6.30;;;;;;;21.61;56.55;99517.56;463645;1195;140566;-68
2021/08/22 17:28:08;;;;;;;12.40;5.50;;;;;;;21.30;57.22;99512.06;469702;1195;140752;-70
2021/08/22 17:38:13;;;;;;;5.80;5.40;;;;;;;20.98;58.14;99518.11;471391;1195;143254;-71
2021/08/22 17:48:19;;;;;;;6.30;5.70;;;;;;;20.72;58.75;99526.50;463982;1195;141222;-61
2021/08/22 17:58:26;;;;;;;6.60;6.00;;;;;;;20.46;59.58;99530.63;462124;1195;141998;-62
2021/08/22 18:08:31;;;;;;;6.80;6.30;;;;;;;20.22;60.26;99536.02;458255;1194;141638;-61
2021/08/22 18:18:38;;;;;;;7.30;6.40;;;;;;;20.00;60.97;99534.02;472087;1195;141128;-67
2021/08/22 18:28:44;;;;;;;8.00;7.10;;;;;;;19.81;61.61;99534.92;471190;1184;142191;-62
2021/08/22 18:38:50;;;;;;;9.40;7.10;;;;;;;19.66;62.17;99533.09;466373;1195;142211;-61
2021/08/22 18:48:56;;;;;;;6.70;6.10;;;;;;;19.52;62.66;99534.88;469462;1195;142906;-61
2021/08/22 18:59:03;;;;;;;8.40;7.00;;;;;;;19.40;63.21;99532.52;469860;1195;141701;-62
2021/08/22 19:09:09;;;;;;;6.30;5.80;;;;;;;19.32;63.62;99536.36;468247;1194;141121;-62
2021/08/22 19:19:18;;;;;;;6.60;5.90;;;;;;;19.26;63.81;99543.34;472200;1194;142235;-62
2021/08/22 19:29:24;;;;;;;7.90;6.10;;;;;;;19.18;64.06;99540.63;462261;1195;141715;-61
2021/08/22 19:39:30;;;;;;;6.50;6.00;;;;;;;19.13;64.40;99538.93;472097;1195;141494;-61
2021/08/22 19:49:36;;;;;;;7.90;7.20;;;;;;;19.11;64.55;99529.40;470815;1195;141624;-61
2021/08/22 19:59:41;;;;;;;11.20;7.40;;;;;;;19.07;64.81;99536.02;461899;1195;210752;-61
2021/08/22 20:09:47;;;;;;;8.60;7.40;;;;;;;18.95;65.35;99554.00;457547;1195;141856;-59
2021/08/22 20:19:53;;;;;;;8.70;7.90;;;;;;;18.78;65.98;99532.11;455111;1196;141863;-60
2021/08/22 20:29:59;;;;;;;9.10;8.10;;;;;;;18.66;66.50;99543.40;456087;1194;141099;-62
2021/08/22 20:40:06;;;;;;;9.30;8.00;;;;;;;18.55;66.93;99540.31;465638;1195;142286;-61
2021/08/22 20:50:15;;;;;;;9.50;7.60;;;;;;;18.46;67.54;99545.13;470106;1195;141806;-61
2021/08/22 21:00:21;;;;;;;9.00;8.10;;;;;;;18.44;67.62;99550.64;471446;1195;141743;-61
2021/08/22 21:10:27;;;;;;;8.50;7.80;;;;;;;18.43;67.77;99557.62;465455;1194;141756;-60
2021/08/22 21:20:33;;;;;;;9.00;8.30;;;;;;;18.40;67.99;99554.19;470761;1195;142550;-66
2021/08/22 21:30:39;;;;;;;11.50;10.10;;;;;;;18.38;68.22;99556.37;460172;1195;143062;-64
2021/08/22 21:40:55;;;;;;;10.50;9.50;;;;;;;18.32;68.24;99544.04;471064;1195;142065;-63
2021/08/22 21:51:01;;;;;;;9.40;8.60;;;;;;;18.25;68.56;99537.05;472397;1191;141910;-64
2021/08/22 22:01:07;;;;;;;9.90;8.70;;;;;;;18.25;68.56;99525.60;464907;1195;141616;-63
2021/08/22 22:11:14;;;;;;;11.50;10.40;;;;;;;18.23;68.76;99521.30;470468;1195;141122;-64
2021/08/22 22:21:20;;;;;;;8.80;8.00;;;;;;;18.21;68.86;99526.33;472321;1194;142703;-65
2021/08/22 22:31:26;;;;;;;10.20;9.20;;;;;;;18.20;68.79;99519.13;464243;1195;141069;-64
2021/08/22 22:41:33;;;;;;;8.60;7.70;;;;;;;18.19;68.89;99516.77;465842;1194;142300;-64
2021/08/22 22:51:40;;;;;;;8.90;8.20;;;;;;;18.17;68.80;99509.30;459366;1194;141647;-64
2021/08/22 23:01:46;;;;;;;9.60;8.20;;;;;;;18.13;68.84;99494.79;467485;1195;141911;-64
2021/08/22 23:11:52;;;;;;;8.90;8.00;;;;;;;18.12;68.68;99500.77;457088;1194;141987;-62
2021/08/22 23:21:58;;;;;;;8.40;7.50;;;;;;;18.09;68.62;99495.54;456308;1202;141271;-62
2021/08/22 23:32:05;;;;;;;8.30;7.50;;;;;;;18.05;68.73;99496.46;457147;1195;140999;-65
2021/08/22 23:42:11;;;;;;;8.50;7.60;;;;;;;18.02;68.72;99493.23;472520;1194;141672;-64
2021/08/22 23:52:17;;;;;;;8.00;7.30;;;;;;;18.02;68.73;99485.96;464553;1195;142031;-63
